createdAt,value
2017-11-16T00:01:49.990Z,6.70
2017-11-16T00:04:16.877Z,6.60
2017-11-16T00:06:43.835Z,6.40
2017-11-16T00:09:10.723Z,6.40
2017-11-16T00:11:37.650Z,6.60
2017-11-16T00:14:04.630Z,6.40
2017-11-16T00:16:31.606Z,6.50
2017-11-16T00:18:59.553Z,6.10
2017-11-16T00:21:26.473Z,6.10
2017-11-16T00:23:54.136Z,6.10
2017-11-16T00:26:21.082Z,6.00
2017-11-16T00:28:47.953Z,6.00
2017-11-16T00:31:14.896Z,6.20
2017-11-16T00:33:41.849Z,6.20
2017-11-16T00:36:08.784Z,6.00
2017-11-16T00:38:35.657Z,6.10
2017-11-16T00:41:02.600Z,6.10
2017-11-16T00:43:29.580Z,6.10
2017-11-16T00:45:56.448Z,5.80
2017-11-16T00:48:24.049Z,5.90
2017-11-16T00:50:50.990Z,5.90
2017-11-16T00:53:17.861Z,6.00
2017-11-16T00:55:44.707Z,6.20
2017-11-16T00:58:11.657Z,6.00
2017-11-16T01:00:38.558Z,6.30
2017-11-16T01:03:05.512Z,6.30
2017-11-16T01:05:32.454Z,6.10
2017-11-16T01:07:59.396Z,6.30
2017-11-16T01:10:26.348Z,6.10
2017-11-16T01:12:53.227Z,6.20
2017-11-16T01:15:20.184Z,6.20
2017-11-16T01:17:47.121Z,6.40
2017-11-16T01:20:13.994Z,6.00
2017-11-16T01:22:41.680Z,5.90
2017-11-16T01:25:08.577Z,5.90
2017-11-16T01:27:35.521Z,5.90
2017-11-16T01:30:02.429Z,5.90
2017-11-16T01:32:29.370Z,6.10
2017-11-16T01:34:56.329Z,6.10
2017-11-16T01:37:23.218Z,6.30
2017-11-16T01:39:50.163Z,6.10
2017-11-16T01:42:17.043Z,6.20
2017-11-16T01:44:43.997Z,6.20
2017-11-16T01:47:10.941Z,5.70
2017-11-16T01:49:37.888Z,6.10
2017-11-16T01:52:04.756Z,6.00
2017-11-16T01:54:31.697Z,5.70
2017-11-16T01:56:58.596Z,5.60
2017-11-16T01:59:26.302Z,5.70
2017-11-16T02:01:53.271Z,5.60
2017-11-16T02:04:20.265Z,5.70
2017-11-16T02:06:47.927Z,5.90
2017-11-16T02:09:15.641Z,6.00
2017-11-16T02:11:42.634Z,5.90
2017-11-16T02:14:09.572Z,5.90
2017-11-16T02:16:36.424Z,5.90
2017-11-16T02:19:04.156Z,6.00
2017-11-16T02:21:31.121Z,6.00
2017-11-16T02:23:58.889Z,5.90
2017-11-16T02:26:25.973Z,5.90
2017-11-16T02:28:52.878Z,6.00
2017-11-16T02:31:19.821Z,5.80
2017-11-16T02:33:46.938Z,5.70
2017-11-16T02:36:13.886Z,5.70
2017-11-16T02:38:40.914Z,5.60
2017-11-16T02:41:07.873Z,5.40
2017-11-16T02:43:34.924Z,5.40
2017-11-16T02:46:01.871Z,5.20
2017-11-16T02:48:28.985Z,5.50
2017-11-16T02:50:56.690Z,5.40
2017-11-16T02:53:23.765Z,5.30
2017-11-16T02:55:50.785Z,5.40
2017-11-16T02:58:17.796Z,5.50
2017-11-16T03:00:45.494Z,5.70
2017-11-16T03:03:12.381Z,5.60
2017-11-16T03:05:39.349Z,5.70
2017-11-16T03:08:06.332Z,5.60
2017-11-16T03:10:33.303Z,5.60
2017-11-16T03:13:00.219Z,5.50
2017-11-16T03:15:27.131Z,5.20
2017-11-16T03:17:54.839Z,5.50
2017-11-16T03:20:21.716Z,5.50
2017-11-16T03:22:48.690Z,5.50
2017-11-16T03:25:16.330Z,5.90
2017-11-16T03:27:43.407Z,5.90
2017-11-16T03:30:10.316Z,5.50
2017-11-16T03:32:37.288Z,5.80
2017-11-16T03:35:04.965Z,5.90
2017-11-16T03:37:31.910Z,6.00
2017-11-16T03:39:58.888Z,6.10
2017-11-16T03:42:25.765Z,6.30
2017-11-16T03:44:52.728Z,6.20
2017-11-16T03:47:19.674Z,6.30
2017-11-16T03:49:47.461Z,6.50
2017-11-16T03:52:14.444Z,6.50
2017-11-16T03:54:41.392Z,6.50
2017-11-16T03:57:08.347Z,6.60
2017-11-16T03:59:35.218Z,6.50
2017-11-16T04:02:02.099Z,6.50
2017-11-16T04:04:29.042Z,6.60
2017-11-16T04:06:55.900Z,6.50
2017-11-16T04:09:22.833Z,6.70
2017-11-16T04:11:49.775Z,6.50
2017-11-16T04:14:16.770Z,6.60
2017-11-16T04:16:43.740Z,6.70
2017-11-16T04:19:10.647Z,6.70
2017-11-16T04:21:37.694Z,6.70
2017-11-16T04:24:04.605Z,6.70
2017-11-16T04:26:32.337Z,6.70
2017-11-16T04:28:59.245Z,6.70
2017-11-16T04:31:26.201Z,6.80
2017-11-16T04:33:53.172Z,6.80
2017-11-16T04:36:20.074Z,6.60
2017-11-16T04:38:46.954Z,6.40
2017-11-16T04:41:13.911Z,6.50
2017-11-16T04:43:40.782Z,6.70
2017-11-16T04:46:08.545Z,6.50
2017-11-16T04:48:35.429Z,6.50
2017-11-16T04:51:02.361Z,6.50
2017-11-16T04:53:29.242Z,6.60
2017-11-16T04:55:56.120Z,6.50
2017-11-16T04:58:23.749Z,6.10
2017-11-16T05:00:50.702Z,6.40
2017-11-16T05:03:18.057Z,6.30
2017-11-16T05:05:44.997Z,6.30
2017-11-16T05:08:11.973Z,6.30
2017-11-16T05:10:38.847Z,6.10
2017-11-16T05:13:05.802Z,6.30
2017-11-16T05:15:32.766Z,6.30
2017-11-16T05:17:59.701Z,6.30
2017-11-16T05:20:26.603Z,6.30
2017-11-16T05:22:54.623Z,5.90
2017-11-16T05:25:23.257Z,5.90
2017-11-16T05:30:37.163Z,6.00
2017-11-16T05:33:04.196Z,6.00
2017-11-16T05:35:31.179Z,6.10
2017-11-16T05:37:58.152Z,5.90
2017-11-16T05:40:25.029Z,6.10
2017-11-16T05:42:52.655Z,5.90
2017-11-16T05:45:19.634Z,5.90
2017-11-16T05:47:47.290Z,5.90
2017-11-16T05:50:15.579Z,5.90
2017-11-16T05:52:43.213Z,5.70
2017-11-16T05:55:10.120Z,5.70
2017-11-16T05:57:37.144Z,6.10
2017-11-16T06:00:04.118Z,6.20
2017-11-16T06:02:31.065Z,6.10
2017-11-16T06:04:58.004Z,6.10
2017-11-16T06:07:24.946Z,6.20
2017-11-16T06:09:52.902Z,6.10
2017-11-16T06:12:19.861Z,6.10
2017-11-16T06:14:46.768Z,6.20
2017-11-16T06:17:14.999Z,5.90
2017-11-16T06:19:41.963Z,5.90
2017-11-16T06:22:08.861Z,6.10
2017-11-16T06:24:35.983Z,6.10
2017-11-16T06:27:03.672Z,6.10
2017-11-16T06:29:30.696Z,6.10
2017-11-16T06:31:58.557Z,5.70
2017-11-16T06:34:28.659Z,5.90
2017-11-16T06:36:56.586Z,5.90
2017-11-16T06:39:23.453Z,5.90
2017-11-16T06:41:50.394Z,5.70
2017-11-16T06:44:17.260Z,5.50
2017-11-16T06:46:44.144Z,5.70
2017-11-16T06:49:11.877Z,5.90
2017-11-16T06:51:38.753Z,5.80
2017-11-16T06:54:05.720Z,5.60
2017-11-16T06:56:32.599Z,5.90
2017-11-16T06:58:59.540Z,5.90
2017-11-16T07:01:26.437Z,5.50
2017-11-16T07:03:54.146Z,5.60
2017-11-16T07:06:21.010Z,5.60
2017-11-16T07:08:47.905Z,5.70
2017-11-16T07:11:14.862Z,5.60
2017-11-16T07:13:41.829Z,5.50
2017-11-16T07:16:08.721Z,5.50
2017-11-16T07:18:36.473Z,5.70
2017-11-16T07:21:03.399Z,5.70
2017-11-16T07:23:30.407Z,5.80
2017-11-16T07:25:57.295Z,5.70
2017-11-16T07:28:24.298Z,5.90
2017-11-16T07:30:51.209Z,6.10
2017-11-16T07:33:18.920Z,6.10
2017-11-16T07:35:45.825Z,6.10
2017-11-16T07:38:13.502Z,6.20
2017-11-16T07:40:54.113Z,6.20
2017-11-16T07:43:21.035Z,6.20
2017-11-16T07:45:47.981Z,6.20
2017-11-16T07:48:14.837Z,6.20
2017-11-16T07:50:41.857Z,6.30
2017-11-16T07:53:09.618Z,6.20
2017-11-16T07:55:36.472Z,6.20
2017-11-16T07:58:03.504Z,6.30
2017-11-16T08:00:31.119Z,6.30
2017-11-16T08:02:58.000Z,6.30
2017-11-16T08:05:24.958Z,6.20
2017-11-16T08:07:52.616Z,6.50
2017-11-16T08:10:20.287Z,6.60
2017-11-16T08:12:47.216Z,6.60
2017-11-16T08:15:14.096Z,6.60
2017-11-16T08:17:41.024Z,6.60
2017-11-16T08:20:07.969Z,6.60
2017-11-16T08:22:35.591Z,6.60
2017-11-16T08:25:02.562Z,6.60
2017-11-16T08:27:29.529Z,6.10
2017-11-16T08:29:57.208Z,6.50
2017-11-16T08:32:24.152Z,6.50
2017-11-16T08:34:51.024Z,6.40
2017-11-16T08:37:17.974Z,6.20
2017-11-16T08:39:44.956Z,6.30
2017-11-16T08:42:11.846Z,6.50
2017-11-16T08:44:38.824Z,6.50
2017-11-16T08:47:09.226Z,6.70
2017-11-16T08:49:38.269Z,6.70
2017-11-16T08:52:06.173Z,6.60
2017-11-16T08:54:33.198Z,6.50
2017-11-16T08:57:00.957Z,6.50
2017-11-16T08:59:27.992Z,6.50
2017-11-16T09:01:54.964Z,6.20
2017-11-16T09:04:22.753Z,6.00
2017-11-16T09:06:49.698Z,6.00
2017-11-16T09:09:16.715Z,6.20
2017-11-16T09:11:43.631Z,6.20
2017-11-16T09:14:10.630Z,6.40
2017-11-16T09:16:37.582Z,6.40
2017-11-16T09:19:04.560Z,6.50
2017-11-16T09:21:31.585Z,6.60
2017-11-16T09:23:58.533Z,6.70
2017-11-16T09:26:25.513Z,6.80
2017-11-16T09:28:52.558Z,6.90
2017-11-16T09:31:19.617Z,6.90
2017-11-16T09:33:46.537Z,6.90
2017-11-16T09:36:13.505Z,7.00
2017-11-16T09:38:40.538Z,7.00
2017-11-16T09:41:07.564Z,7.00
2017-11-16T09:43:34.462Z,7.10
2017-11-16T09:46:01.455Z,7.10
2017-11-16T09:48:28.352Z,7.20
2017-11-16T09:50:55.241Z,7.20
2017-11-16T09:53:22.192Z,7.30
2017-11-16T09:55:49.194Z,7.20
2017-11-16T09:58:16.102Z,7.30
2017-11-16T10:00:43.119Z,7.30
2017-11-16T10:03:10.059Z,7.40
2017-11-16T10:05:37.747Z,7.40
2017-11-16T10:08:04.601Z,7.40
2017-11-16T10:10:31.467Z,7.50
2017-11-16T10:12:58.497Z,7.40
2017-11-16T10:15:25.387Z,7.50
2017-11-16T10:17:52.251Z,6.90
2017-11-16T10:20:19.944Z,6.70
2017-11-16T10:22:46.885Z,6.70
2017-11-16T10:25:13.801Z,7.00
2017-11-16T10:27:41.422Z,7.20
2017-11-16T10:30:08.399Z,7.20
2017-11-16T10:32:36.201Z,7.40
2017-11-16T10:35:03.098Z,7.40
2017-11-16T10:37:30.045Z,7.50
2017-11-16T10:39:56.942Z,7.50
2017-11-16T10:42:23.885Z,7.50
2017-11-16T10:44:50.878Z,7.30
2017-11-16T10:47:19.102Z,7.40
2017-11-16T10:49:46.073Z,7.40
2017-11-16T10:52:13.096Z,7.50
2017-11-16T10:54:40.134Z,7.50
2017-11-16T10:57:07.041Z,7.40
2017-11-16T10:59:34.031Z,7.50
2017-11-16T11:02:02.649Z,7.20
2017-11-16T11:04:29.537Z,7.00
2017-11-16T11:07:01.047Z,7.20
2017-11-16T11:09:27.997Z,7.20
2017-11-16T11:11:55.111Z,7.30
2017-11-16T11:14:21.981Z,7.30
2017-11-16T11:16:48.862Z,7.30
2017-11-16T11:19:15.865Z,7.30
2017-11-16T11:21:44.497Z,7.40
2017-11-16T11:24:13.149Z,7.40
2017-11-16T11:26:40.200Z,7.50
2017-11-16T11:29:07.154Z,7.40
2017-11-16T11:31:34.115Z,7.50
2017-11-16T11:34:00.997Z,7.40
2017-11-16T11:36:30.517Z,7.10
2017-11-16T11:38:57.436Z,7.10
2017-11-16T11:41:24.369Z,7.40
2017-11-16T11:43:52.109Z,7.40
2017-11-16T11:46:19.064Z,7.40
2017-11-16T11:48:46.026Z,7.40
2017-11-16T11:51:12.973Z,7.10
2017-11-16T11:53:39.884Z,7.30
2017-11-16T11:56:06.778Z,7.40
2017-11-16T11:58:33.742Z,7.30
2017-11-16T12:01:01.822Z,7.20
2017-11-16T12:03:28.788Z,7.20
2017-11-16T12:05:55.657Z,7.20
2017-11-16T12:08:23.897Z,7.20
2017-11-16T12:10:50.861Z,7.20
2017-11-16T12:13:17.867Z,7.20
2017-11-16T12:15:57.357Z,7.30
2017-11-16T12:18:30.234Z,7.20
2017-11-16T12:21:04.916Z,7.10
2017-11-16T12:23:32.394Z,7.10
2017-11-16T12:26:09.422Z,7.20
2017-11-16T12:28:36.695Z,7.20
2017-11-16T12:31:04.361Z,7.20
2017-11-16T12:33:31.358Z,7.30
2017-11-16T12:35:58.341Z,7.30
2017-11-16T12:38:26.503Z,7.30
2017-11-16T12:40:53.597Z,7.10
2017-11-16T12:43:21.279Z,7.30
2017-11-16T12:45:49.267Z,7.30
2017-11-16T12:48:16.214Z,7.40
2017-11-16T12:50:43.537Z,7.30
2017-11-16T12:53:11.235Z,7.40
2017-11-16T12:55:38.632Z,7.40
2017-11-16T12:58:05.609Z,7.40
2017-11-16T13:00:33.263Z,7.40
2017-11-16T13:03:05.296Z,7.40
2017-11-16T13:05:32.757Z,7.30
2017-11-16T13:07:59.776Z,7.30
2017-11-16T13:10:26.735Z,7.30
2017-11-16T13:12:53.684Z,7.40
2017-11-16T13:15:20.621Z,7.20
2017-11-16T13:17:47.911Z,7.10
2017-11-16T13:20:21.317Z,7.20
2017-11-16T13:22:48.478Z,7.20
2017-11-16T13:25:16.306Z,7.20
2017-11-16T13:27:43.212Z,7.20
2017-11-16T13:30:10.189Z,7.20
2017-11-16T13:32:37.041Z,7.20
2017-11-16T13:35:03.911Z,7.10
2017-11-16T13:37:30.845Z,7.10
2017-11-16T13:40:00.167Z,7.10
2017-11-16T13:42:27.259Z,7.00
2017-11-16T13:44:54.139Z,7.00
2017-11-16T13:47:21.026Z,7.00
2017-11-16T13:49:47.989Z,7.00
2017-11-16T13:52:15.017Z,7.00
2017-11-16T13:54:42.775Z,7.00
2017-11-16T13:57:13.879Z,7.00
2017-11-16T13:59:40.892Z,7.00
2017-11-16T14:02:07.817Z,7.00
2017-11-16T14:04:34.686Z,7.00
2017-11-16T14:07:08.998Z,6.90
2017-11-16T14:09:41.850Z,6.90
2017-11-16T14:12:10.128Z,6.80
2017-11-16T14:14:37.009Z,6.80
2017-11-16T14:17:04.721Z,6.80
2017-11-16T14:19:31.928Z,6.80
2017-11-16T14:21:58.865Z,6.80
2017-11-16T14:24:25.813Z,6.70
2017-11-16T14:26:52.801Z,6.70
2017-11-16T14:29:19.702Z,6.70
2017-11-16T14:31:47.486Z,6.60
2017-11-16T14:34:14.478Z,6.60
2017-11-16T14:36:43.701Z,6.50
2017-11-16T14:39:10.812Z,6.50
2017-11-16T14:41:37.697Z,6.50
2017-11-16T14:44:05.354Z,6.40
2017-11-16T14:46:33.109Z,6.50
2017-11-16T14:48:59.983Z,6.50
2017-11-16T14:51:26.871Z,6.50
2017-11-16T14:53:53.844Z,6.50
2017-11-16T14:56:20.736Z,6.50
2017-11-16T14:58:47.911Z,6.40
2017-11-16T15:01:16.313Z,6.30
2017-11-16T15:03:45.721Z,6.30
2017-11-16T15:06:12.720Z,6.30
2017-11-16T15:08:39.685Z,6.30
2017-11-16T15:11:06.621Z,6.20
2017-11-16T15:13:33.561Z,6.20
2017-11-16T15:16:00.509Z,6.20
2017-11-16T15:18:27.449Z,6.30
2017-11-16T15:20:54.405Z,6.20
2017-11-16T15:23:21.299Z,6.20
2017-11-16T15:25:48.280Z,6.30
2017-11-16T15:28:15.201Z,6.20
2017-11-16T15:30:42.899Z,6.20
2017-11-16T15:33:09.932Z,6.20
2017-11-16T15:35:36.869Z,6.20
2017-11-16T15:38:09.931Z,6.20
2017-11-16T15:40:37.136Z,6.10
2017-11-16T15:43:04.030Z,6.10
2017-11-16T15:45:30.973Z,6.10
2017-11-16T15:47:57.857Z,6.10
2017-11-16T15:50:25.577Z,6.10
2017-11-16T15:52:52.454Z,6.10
2017-11-16T15:55:20.169Z,6.10
2017-11-16T15:57:47.185Z,6.20
2017-11-16T16:00:14.099Z,6.20
2017-11-16T16:02:41.146Z,6.10
2017-11-16T16:05:08.116Z,6.10
2017-11-16T16:07:35.751Z,6.20
2017-11-16T16:10:02.740Z,6.20
2017-11-16T16:12:29.689Z,6.20
2017-11-16T16:14:56.577Z,6.20
2017-11-16T16:17:23.556Z,6.20
2017-11-16T16:19:51.256Z,6.30
2017-11-16T16:22:18.229Z,6.30
2017-11-16T16:24:46.123Z,6.20
2017-11-16T16:27:13.014Z,6.20
2017-11-16T16:29:42.854Z,6.20
2017-11-16T16:32:10.040Z,6.10
2017-11-16T16:34:39.667Z,6.00
2017-11-16T16:37:07.704Z,6.00
2017-11-16T16:39:37.208Z,6.00
2017-11-16T16:42:11.235Z,6.00
2017-11-16T16:44:38.874Z,6.00
2017-11-16T16:47:07.807Z,5.90
2017-11-16T16:49:43.341Z,5.90
2017-11-16T16:52:11.083Z,5.70
2017-11-16T16:54:37.978Z,5.70
2017-11-16T16:59:51.543Z,5.70
2017-11-16T17:02:23.006Z,5.70
2017-11-16T17:04:50.588Z,5.70
2017-11-16T17:07:17.488Z,5.70
2017-11-16T17:09:46.106Z,5.70
2017-11-16T17:12:13.913Z,5.80
2017-11-16T17:14:47.610Z,5.80
2017-11-16T17:17:14.515Z,5.70
2017-11-16T17:19:41.410Z,5.70
2017-11-16T17:22:09.170Z,5.80
2017-11-16T17:24:36.068Z,5.80
2017-11-16T17:27:07.332Z,5.80
2017-11-16T17:29:34.543Z,5.70
2017-11-16T17:32:05.894Z,5.70
2017-11-16T17:34:34.113Z,5.80
2017-11-16T17:37:01.011Z,5.80
2017-11-16T17:39:27.966Z,5.80
2017-11-16T17:41:54.972Z,5.80
2017-11-16T17:44:21.854Z,5.90
2017-11-16T17:46:48.736Z,5.80
2017-11-16T17:49:15.681Z,5.80
2017-11-16T17:51:42.569Z,5.70
2017-11-16T17:54:09.460Z,5.70
2017-11-16T17:56:36.404Z,5.60
2017-11-16T17:59:03.298Z,5.60
2017-11-16T18:01:30.186Z,5.50
2017-11-16T18:03:57.169Z,5.60
2017-11-16T18:06:24.048Z,5.50
2017-11-16T18:08:51.753Z,5.50
2017-11-16T18:11:18.701Z,5.50
2017-11-16T18:13:45.645Z,5.50
2017-11-16T18:16:12.617Z,5.40
2017-11-16T18:18:39.580Z,5.50
2017-11-16T18:21:06.532Z,5.50
2017-11-16T18:23:33.407Z,5.60
2017-11-16T18:26:00.403Z,5.50
2017-11-16T18:28:27.311Z,5.50
2017-11-16T18:30:54.225Z,5.60
2017-11-16T18:33:21.922Z,5.40
2017-11-16T18:35:48.858Z,5.40
2017-11-16T18:38:15.867Z,5.30
2017-11-16T18:40:42.802Z,5.20
2017-11-16T18:43:09.748Z,5.30
2017-11-16T18:45:36.713Z,5.30
2017-11-16T18:48:03.691Z,5.30
2017-11-16T18:50:30.714Z,5.30
2017-11-16T18:52:57.755Z,5.30
2017-11-16T18:55:24.649Z,5.40
2017-11-16T18:57:51.822Z,5.30
2017-11-16T19:00:30.981Z,5.20
2017-11-16T19:02:59.734Z,5.30
2017-11-16T19:05:26.621Z,5.20
2017-11-16T19:07:53.501Z,5.20
2017-11-16T19:10:20.433Z,5.30
2017-11-16T19:12:47.413Z,5.30
2017-11-16T19:15:14.395Z,5.20
2017-11-16T19:17:42.005Z,5.20
2017-11-16T19:20:08.884Z,5.30
2017-11-16T19:22:35.844Z,5.40
2017-11-16T19:25:02.760Z,5.40
2017-11-16T19:27:30.231Z,5.40
2017-11-16T19:29:57.121Z,5.40
2017-11-16T19:32:24.845Z,5.40
2017-11-16T19:35:07.190Z,5.40
2017-11-16T19:37:35.159Z,5.50
2017-11-16T19:40:02.781Z,5.40
2017-11-16T19:42:30.241Z,5.40
2017-11-16T19:44:57.196Z,5.40
2017-11-16T19:47:24.309Z,5.40
2017-11-16T19:49:51.210Z,5.50
2017-11-16T19:52:18.168Z,5.40
2017-11-16T19:54:45.845Z,5.40
2017-11-16T19:57:12.814Z,5.40
2017-11-16T19:59:39.745Z,5.40
2017-11-16T20:02:06.736Z,5.40
2017-11-16T20:04:33.738Z,5.30
2017-11-16T20:07:00.598Z,5.30
2017-11-16T20:09:27.612Z,5.20
2017-11-16T20:11:55.239Z,5.40
2017-11-16T20:14:22.304Z,5.40
2017-11-16T20:16:49.231Z,5.30
2017-11-16T20:19:16.137Z,5.20
2017-11-16T20:21:43.336Z,5.20
2017-11-16T20:24:10.982Z,5.20
2017-11-16T20:26:39.148Z,5.10
2017-11-16T20:29:09.313Z,5.20
2017-11-16T20:31:36.457Z,5.20
2017-11-16T20:34:03.437Z,5.20
2017-11-16T20:36:30.397Z,5.30
2017-11-16T20:39:01.375Z,5.40
2017-11-16T20:41:43.186Z,5.40
2017-11-16T20:44:17.341Z,5.40
2017-11-16T20:46:50.354Z,5.30
2017-11-16T20:49:33.630Z,5.40
2017-11-16T20:52:00.841Z,5.40
2017-11-16T20:54:29.026Z,5.30
2017-11-16T20:56:56.727Z,5.30
2017-11-16T20:59:23.821Z,5.40
2017-11-16T21:01:50.694Z,5.40
2017-11-16T21:04:17.657Z,5.50
2017-11-16T21:06:44.520Z,5.50
2017-11-16T21:09:12.227Z,5.60
2017-11-16T21:11:39.175Z,5.60
2017-11-16T21:14:08.075Z,5.60
2017-11-16T21:16:35.087Z,5.60
2017-11-16T21:19:01.955Z,5.60
2017-11-16T21:21:28.899Z,5.50
2017-11-16T21:23:55.775Z,5.60
2017-11-16T21:26:36.550Z,5.60
2017-11-16T21:29:04.438Z,5.60
2017-11-16T21:31:32.113Z,5.70
2017-11-16T21:33:59.719Z,5.60
2017-11-16T21:36:26.614Z,5.60
2017-11-16T21:38:54.280Z,5.60
2017-11-16T21:41:32.343Z,5.60
2017-11-16T21:44:14.475Z,5.60
2017-11-16T21:46:57.864Z,5.70
2017-11-16T21:49:40.802Z,5.80
2017-11-16T21:52:20.321Z,5.80
2017-11-16T21:57:42.385Z,5.70
2017-11-16T22:00:25.933Z,5.70
2017-11-16T22:03:06.413Z,5.70
2017-11-16T22:05:47.909Z,5.70
2017-11-16T22:08:30.764Z,5.60
2017-11-16T22:10:58.650Z,5.60
2017-11-16T22:13:25.530Z,5.70
2017-11-16T22:15:52.500Z,5.70
2017-11-16T22:18:21.113Z,5.70
2017-11-16T22:20:48.765Z,5.70
2017-11-16T22:23:16.673Z,5.80
2017-11-16T22:25:43.958Z,5.80
2017-11-16T22:28:10.955Z,5.80
2017-11-16T22:30:37.961Z,5.80
2017-11-16T22:33:20.555Z,5.80
2017-11-16T22:35:48.642Z,5.80
2017-11-16T22:38:16.397Z,5.80
2017-11-16T22:40:44.022Z,5.70
2017-11-16T22:43:14.009Z,5.70
2017-11-16T22:45:41.397Z,5.70
2017-11-16T22:48:08.579Z,5.70
2017-11-16T22:50:35.491Z,5.70
2017-11-16T22:53:02.979Z,5.80
2017-11-16T22:55:29.953Z,5.60
2017-11-16T22:57:57.579Z,5.60
2017-11-16T23:00:25.066Z,5.60
2017-11-16T23:02:52.170Z,5.70
2017-11-16T23:05:19.188Z,5.70
2017-11-16T23:07:47.247Z,5.60
2017-11-16T23:10:15.356Z,5.60
2017-11-16T23:12:42.255Z,5.60
2017-11-16T23:15:12.286Z,5.50
2017-11-16T23:17:39.473Z,5.60
2017-11-16T23:20:07.006Z,5.50
2017-11-16T23:22:46.251Z,5.50
2017-11-16T23:25:13.641Z,5.50
2017-11-16T23:27:40.598Z,5.50
2017-11-16T23:30:08.393Z,5.30
2017-11-16T23:32:36.568Z,5.40
2017-11-16T23:35:04.273Z,5.40
2017-11-16T23:37:37.641Z,5.40
2017-11-16T23:40:05.458Z,5.50
2017-11-16T23:42:32.509Z,5.50
2017-11-16T23:44:59.760Z,5.40
2017-11-16T23:47:26.844Z,5.50
2017-11-16T23:49:53.971Z,5.40
2017-11-16T23:52:21.445Z,5.50
2017-11-16T23:54:49.529Z,5.50
2017-11-16T23:57:16.500Z,5.50
2017-11-16T23:59:43.835Z,5.50
